sensor_id;sensor_type;location;lat;lon;timestamp;temperature;humidity
14154;DHT22;7157;53.144;7.570;2023-06-24T00:07:34;17.53;91.31
14154;DHT22;7157;53.144;7.570;2023-06-24T00:17:46;17.46;91.16
14154;DHT22;7157;53.144;7.570;2023-06-24T00:27:51;17.48;90.89
14154;DHT22;7157;53.144;7.570;2023-06-24T00:37:54;17.40;91.00
14154;DHT22;7157;53.144;7.570;2023-06-24T00:48:01;17.18;91.56
14154;DHT22;7157;53.144;7.570;2023-06-24T00:58:05;17.02;92.32
14154;DHT22;7157;53.144;7.570;2023-06-24T01:08:09;16.95;92.62
14154;DHT22;7157;53.144;7.570;2023-06-24T01:18:24;16.88;92.92
14154;DHT22;7157;53.144;7.570;2023-06-24T01:28:45;16.77;92.72
14154;DHT22;7157;53.144;7.570;2023-06-24T01:38:55;16.65;93.47
14154;DHT22;7157;53.144;7.570;2023-06-24T01:49:02;16.62;93.37
14154;DHT22;7157;53.144;7.570;2023-06-24T01:59:07;16.59;93.24
14154;DHT22;7157;53.144;7.570;2023-06-24T02:09:11;16.45;93.20
14154;DHT22;7157;53.144;7.570;2023-06-24T02:19:16;16.28;93.41
14154;DHT22;7157;53.144;7.570;2023-06-24T02:29:20;16.25;93.45
14154;DHT22;7157;53.144;7.570;2023-06-24T02:39:25;16.27;93.54
14154;DHT22;7157;53.144;7.570;2023-06-24T02:49:28;16.21;93.38
14154;DHT22;7157;53.144;7.570;2023-06-24T02:59:33;16.18;93.56
14154;DHT22;7157;53.144;7.570;2023-06-24T03:09:37;16.26;93.04
14154;DHT22;7157;53.144;7.570;2023-06-24T03:19:41;16.04;93.34
14154;DHT22;7157;53.144;7.570;2023-06-24T03:29:44;15.97;93.49
14154;DHT22;7157;53.144;7.570;2023-06-24T03:39:48;15.93;93.58
14154;DHT22;7157;53.144;7.570;2023-06-24T03:49:51;16.05;93.88
14154;DHT22;7157;53.144;7.570;2023-06-24T03:59:55;16.27;93.81
14154;DHT22;7157;53.144;7.570;2023-06-24T04:09:58;16.42;93.98
14154;DHT22;7157;53.144;7.570;2023-06-24T04:20:02;16.60;94.17
14154;DHT22;7157;53.144;7.570;2023-06-24T04:30:09;16.57;95.01
14154;DHT22;7157;53.144;7.570;2023-06-24T04:40:13;16.77;94.85
14154;DHT22;7157;53.144;7.570;2023-06-24T04:50:16;16.92;95.01
14154;DHT22;7157;53.144;7.570;2023-06-24T05:00:20;17.18;94.25
14154;DHT22;7157;53.144;7.570;2023-06-24T05:10:24;17.39;93.44
14154;DHT22;7157;53.144;7.570;2023-06-24T05:20:28;17.45;92.97
14154;DHT22;7157;53.144;7.570;2023-06-24T05:30:31;17.89;91.47
14154;DHT22;7157;53.144;7.570;2023-06-24T05:40:35;18.28;90.24
14154;DHT22;7157;53.144;7.570;2023-06-24T05:50:38;18.53;88.95
14154;DHT22;7157;53.144;7.570;2023-06-24T06:00:42;19.15;87.59
14154;DHT22;7157;53.144;7.570;2023-06-24T06:10:44;19.54;86.00
14154;DHT22;7157;53.144;7.570;2023-06-24T06:20:49;19.80;83.61
14154;DHT22;7157;53.144;7.570;2023-06-24T06:30:51;20.10;80.94
14154;DHT22;7157;53.144;7.570;2023-06-24T06:40:55;20.55;79.85
14154;DHT22;7157;53.144;7.570;2023-06-24T06:50:58;20.94;77.69
14154;DHT22;7157;53.144;7.570;2023-06-24T07:01:02;21.05;73.83
14154;DHT22;7157;53.144;7.570;2023-06-24T07:11:06;21.52;73.10
14154;DHT22;7157;53.144;7.570;2023-06-24T07:21:10;21.79;71.29
14154;DHT22;7157;53.144;7.570;2023-06-24T07:31:13;22.09;70.81
14154;DHT22;7157;53.144;7.570;2023-06-24T07:41:17;22.62;69.62
14154;DHT22;7157;53.144;7.570;2023-06-24T07:51:20;22.88;68.68
14154;DHT22;7157;53.144;7.570;2023-06-24T08:01:24;23.27;65.96
14154;DHT22;7157;53.144;7.570;2023-06-24T08:11:27;23.55;64.80
14154;DHT22;7157;53.144;7.570;2023-06-24T08:21:31;24.00;64.09
14154;DHT22;7157;53.144;7.570;2023-06-24T08:31:33;24.45;62.33
14154;DHT22;7157;53.144;7.570;2023-06-24T08:41:38;24.65;59.50
14154;DHT22;7157;53.144;7.570;2023-06-24T08:51:43;25.33;59.27
14154;DHT22;7157;53.144;7.570;2023-06-24T09:01:49;26.01;55.52
14154;DHT22;7157;53.144;7.570;2023-06-24T09:11:54;26.08;55.93
14154;DHT22;7157;53.144;7.570;2023-06-24T09:22:01;26.97;53.09
14154;DHT22;7157;53.144;7.570;2023-06-24T09:32:05;27.11;51.91
14154;DHT22;7157;53.144;7.570;2023-06-24T09:42:09;27.30;49.89
14154;DHT22;7157;53.144;7.570;2023-06-24T09:52:13;27.44;48.64
14154;DHT22;7157;53.144;7.570;2023-06-24T10:02:20;27.59;49.18
14154;DHT22;7157;53.144;7.570;2023-06-24T10:12:23;27.67;47.38
14154;DHT22;7157;53.144;7.570;2023-06-24T10:22:30;28.23;48.74
14154;DHT22;7157;53.144;7.570;2023-06-24T10:32:40;27.76;46.47
14154;DHT22;7157;53.144;7.570;2023-06-24T10:42:45;27.50;46.73
14154;DHT22;7157;53.144;7.570;2023-06-24T10:52:51;28.01;46.81
14154;DHT22;7157;53.144;7.570;2023-06-24T11:03:07;28.64;46.71
14154;DHT22;7157;53.144;7.570;2023-06-24T11:13:10;28.46;46.78
14154;DHT22;7157;53.144;7.570;2023-06-24T11:23:14;28.61;46.21
14154;DHT22;7157;53.144;7.570;2023-06-24T11:33:26;28.40;47.18
14154;DHT22;7157;53.144;7.570;2023-06-24T11:43:30;33.14;36.02
14154;DHT22;7157;53.144;7.570;2023-06-24T11:53:40;33.14;35.18
14154;DHT22;7157;53.144;7.570;2023-06-24T12:03:45;36.21;26.71
14154;DHT22;7157;53.144;7.570;2023-06-24T12:13:48;33.26;31.17
14154;DHT22;7157;53.144;7.570;2023-06-24T12:23:52;35.57;28.61
14154;DHT22;7157;53.144;7.570;2023-06-24T12:33:55;39.56;22.43
14154;DHT22;7157;53.144;7.570;2023-06-24T12:43:59;36.21;27.94
14154;DHT22;7157;53.144;7.570;2023-06-24T12:54:02;35.82;28.62
14154;DHT22;7157;53.144;7.570;2023-06-24T13:04:06;38.32;24.49
14154;DHT22;7157;53.144;7.570;2023-06-24T13:14:09;32.88;32.71
14154;DHT22;7157;53.144;7.570;2023-06-24T13:24:13;30.78;37.30
14154;DHT22;7157;53.144;7.570;2023-06-24T13:34:16;30.03;38.60
14154;DHT22;7157;53.144;7.570;2023-06-24T13:44:21;29.83;39.61
14154;DHT22;7157;53.144;7.570;2023-06-24T13:54:23;29.68;40.34
14154;DHT22;7157;53.144;7.570;2023-06-24T14:04:27;30.18;38.13
14154;DHT22;7157;53.144;7.570;2023-06-24T14:14:30;29.88;39.86
14154;DHT22;7157;53.144;7.570;2023-06-24T14:24:35;29.87;40.10
14154;DHT22;7157;53.144;7.570;2023-06-24T14:34:37;30.51;38.69
14154;DHT22;7157;53.144;7.570;2023-06-24T14:44:42;30.18;38.18
14154;DHT22;7157;53.144;7.570;2023-06-24T14:54:46;29.45;39.81
14154;DHT22;7157;53.144;7.570;2023-06-24T15:04:50;28.92;41.55
14154;DHT22;7157;53.144;7.570;2023-06-24T15:14:53;28.87;43.97
14154;DHT22;7157;53.144;7.570;2023-06-24T15:24:56;28.83;45.70
14154;DHT22;7157;53.144;7.570;2023-06-24T15:35:01;28.59;49.86
14154;DHT22;7157;53.144;7.570;2023-06-24T15:45:06;28.49;51.99
14154;DHT22;7157;53.144;7.570;2023-06-24T15:55:09;27.97;54.10
14154;DHT22;7157;53.144;7.570;2023-06-24T16:05:13;28.12;53.10
14154;DHT22;7157;53.144;7.570;2023-06-24T16:15:16;28.18;53.62
14154;DHT22;7157;53.144;7.570;2023-06-24T16:25:20;27.85;55.07
14154;DHT22;7157;53.144;7.570;2023-06-24T16:35:23;27.81;53.20
14154;DHT22;7157;53.144;7.570;2023-06-24T16:45:27;28.21;51.28
14154;DHT22;7157;53.144;7.570;2023-06-24T16:55:29;27.91;51.96
14154;DHT22;7157;53.144;7.570;2023-06-24T17:05:34;27.57;50.88
14154;DHT22;7157;53.144;7.570;2023-06-24T17:15:39;27.13;50.91
14154;DHT22;7157;53.144;7.570;2023-06-24T17:25:44;26.81;52.61
14154;DHT22;7157;53.144;7.570;2023-06-24T17:35:50;26.51;53.40
14154;DHT22;7157;53.144;7.570;2023-06-24T17:45:54;26.41;52.76
14154;DHT22;7157;53.144;7.570;2023-06-24T17:55:57;26.46;52.72
14154;DHT22;7157;53.144;7.570;2023-06-24T18:06:01;26.97;50.92
14154;DHT22;7157;53.144;7.570;2023-06-24T18:16:04;26.99;51.29
14154;DHT22;7157;53.144;7.570;2023-06-24T18:26:08;26.99;51.82
14154;DHT22;7157;53.144;7.570;2023-06-24T18:36:10;26.67;51.72
14154;DHT22;7157;53.144;7.570;2023-06-24T18:46:15;25.88;53.33
14154;DHT22;7157;53.144;7.570;2023-06-24T18:56:20;25.62;54.42
14154;DHT22;7157;53.144;7.570;2023-06-24T19:06:24;25.24;55.53
14154;DHT22;7157;53.144;7.570;2023-06-24T19:16:27;25.01;57.50
14154;DHT22;7157;53.144;7.570;2023-06-24T19:26:31;24.64;59.92
14154;DHT22;7157;53.144;7.570;2023-06-24T19:36:34;24.30;62.06
14154;DHT22;7157;53.144;7.570;2023-06-24T19:46:38;24.00;64.27
14154;DHT22;7157;53.144;7.570;2023-06-24T19:56:43;23.68;65.23
14154;DHT22;7157;53.144;7.570;2023-06-24T20:06:47;23.29;67.44
14154;DHT22;7157;53.144;7.570;2023-06-24T20:16:50;23.03;69.18
14154;DHT22;7157;53.144;7.570;2023-06-24T20:26:54;22.94;69.49
14154;DHT22;7157;53.144;7.570;2023-06-24T20:36:57;22.60;70.58
14154;DHT22;7157;53.144;7.570;2023-06-24T20:47:01;22.44;71.55
14154;DHT22;7157;53.144;7.570;2023-06-24T20:57:04;22.29;72.58
14154;DHT22;7157;53.144;7.570;2023-06-24T21:07:08;22.08;73.99
14154;DHT22;7157;53.144;7.570;2023-06-24T21:17:11;21.69;76.44
14154;DHT22;7157;53.144;7.570;2023-06-24T21:27:15;21.37;77.39
14154;DHT22;7157;53.144;7.570;2023-06-24T21:37:18;21.29;77.85
14154;DHT22;7157;53.144;7.570;2023-06-24T21:47:22;21.11;78.72
14154;DHT22;7157;53.144;7.570;2023-06-24T21:57:25;21.03;79.42
14154;DHT22;7157;53.144;7.570;2023-06-24T22:07:29;20.68;81.15
14154;DHT22;7157;53.144;7.570;2023-06-24T22:17:31;20.41;83.00
14154;DHT22;7157;53.144;7.570;2023-06-24T22:27:35;20.41;82.88
14154;DHT22;7157;53.144;7.570;2023-06-24T22:37:38;20.22;83.37
14154;DHT22;7157;53.144;7.570;2023-06-24T22:47:43;20.24;83.63
14154;DHT22;7157;53.144;7.570;2023-06-24T22:57:46;20.14;83.71
14154;DHT22;7157;53.144;7.570;2023-06-24T23:07:50;19.98;84.44
14154;DHT22;7157;53.144;7.570;2023-06-24T23:17:53;19.74;85.55
14154;DHT22;7157;53.144;7.570;2023-06-24T23:27:59;19.45;86.51
14154;DHT22;7157;53.144;7.570;2023-06-24T23:38:03;19.33;87.09
14154;DHT22;7157;53.144;7.570;2023-06-24T23:48:08;19.13;87.81
14154;DHT22;7157;53.144;7.570;2023-06-24T23:58:11;19.03;88.12
